Time;durP1;ratioP1;P1;durP2;ratioP2;P2;SDS_P1;SDS_P2;PMS_P1;PMS_P2;Temp;Humidity;BMP_temperature;BMP_pressure;BME280_temperature;BME280_humidity;BME280_pressure;Samples;Min_cycle;Max_cycle;Signal;HPM_P1;HPM_P2
2022/06/22 00:01:33;;;;;;;3.85;0.60;;;12.80;99.90;;;;;;5017708;28;20422;-66
2022/06/22 00:04:02;;;;;;;6.50;0.60;;;12.80;99.90;;;;;;5029900;28;20429;-67
2022/06/22 00:06:43;;;;;;;1.75;1.15;;;12.90;99.90;;;;;;5030761;28;20108;-66
2022/06/22 00:09:30;;;;;;;4.65;1.05;;;13.10;99.90;;;;;;5026079;28;20486;-67
2022/06/22 00:11:58;;;;;;;2.97;0.60;;;13.20;99.90;;;;;;5017016;28;20029;-67
2022/06/22 00:14:32;;;;;;;5.65;0.60;;;13.20;99.90;;;;;;5017008;28;20021;-66
2022/06/22 00:17:00;;;;;;;4.53;0.60;;;13.10;99.90;;;;;;5017084;28;20064;-66
2022/06/22 00:19:41;;;;;;;1.40;0.50;;;13.20;99.90;;;;;;5041349;28;20429;-67
2022/06/22 00:22:26;;;;;;;4.43;0.75;;;13.30;99.90;;;;;;5016935;28;20479;-67
2022/06/22 00:25:12;;;;;;;1.20;0.30;;;13.30;99.90;;;;;;5013664;28;20038;-67
2022/06/22 00:27:39;;;;;;;2.15;0.60;;;13.40;99.90;;;;;;5027052;28;20033;-67
2022/06/22 00:30:21;;;;;;;1.45;0.55;;;13.50;99.90;;;;;;5020828;28;20089;-66
2022/06/22 00:33:09;;;;;;;2.95;0.50;;;13.50;99.90;;;;;;5023216;28;20097;-66
2022/06/22 00:35:52;;;;;;;3.13;0.50;;;13.60;99.90;;;;;;5018488;28;20044;-67
2022/06/22 00:38:29;;;;;;;3.47;0.40;;;13.70;99.90;;;;;;5034059;28;20014;-67
2022/06/22 00:41:02;;;;;;;1.45;0.38;;;13.70;99.90;;;;;;5014551;28;20486;-66
2022/06/22 00:43:33;;;;;;;3.00;0.60;;;13.70;99.90;;;;;;5023912;28;20033;-66
2022/06/22 00:46:02;;;;;;;3.40;0.50;;;13.80;99.90;;;;;;5024977;28;20084;-66
2022/06/22 00:48:36;;;;;;;2.63;1.05;;;13.70;99.90;;;;;;5012470;28;20037;-67
2022/06/22 00:51:07;;;;;;;3.00;0.60;;;13.90;99.90;;;;;;5014867;28;20034;-66
2022/06/22 00:53:37;;;;;;;3.78;0.55;;;13.90;99.90;;;;;;5013992;28;20030;-66
2022/06/22 00:56:10;;;;;;;2.13;0.95;;;13.80;99.90;;;;;;5013606;28;20050;-67
2022/06/22 00:59:00;;;;;;;5.00;0.43;;;14.10;99.90;;;;;;5014680;28;20106;-66
2022/06/22 01:01:51;;;;;;;3.03;0.43;;;14.20;99.90;;;;;;5022243;28;20052;-67
2022/06/22 01:04:36;;;;;;;2.67;0.52;;;14.40;99.90;;;;;;5016240;28;20486;-67
2022/06/22 01:07:22;;;;;;;1.50;0.30;;;14.50;99.90;;;;;;5017830;28;20059;-67
2022/06/22 01:10:08;;;;;;;2.30;0.40;;;14.40;99.90;;;;;;5014252;28;20022;-67
2022/06/22 01:12:41;;;;;;;4.30;0.75;;;14.30;99.90;;;;;;5027582;28;20072;-67
2022/06/22 01:15:23;;;;;;;2.58;0.40;;;14.40;99.90;;;;;;5013998;28;20566;-67
2022/06/22 01:18:13;;;;;;;1.48;0.32;;;14.50;99.90;;;;;;5013127;28;20486;-66
2022/06/22 01:21:16;;;;;;;1.83;0.32;;;14.50;99.90;;;;;;5013946;28;20037;-67
2022/06/22 01:24:02;;;;;;;2.42;0.40;;;14.60;99.90;;;;;;5013404;28;20076;-67
2022/06/22 01:27:00;;;;;;;2.92;0.25;;;14.90;99.90;;;;;;5025386;28;20125;-67
2022/06/22 01:29:28;;;;;;;2.90;0.50;;;14.80;99.90;;;;;;5029004;28;20109;-68
2022/06/22 01:32:01;;;;;;;2.40;0.28;;;15.00;99.90;;;;;;5027979;28;20386;-67
2022/06/22 01:34:38;;;;;;;2.40;0.80;;;15.10;99.90;;;;;;5033152;28;20055;-67
2022/06/22 01:37:13;;;;;;;1.80;0.50;;;15.20;99.90;;;;;;5015646;28;20056;-67
2022/06/22 01:39:39;;;;;;;;;;;15.30;99.90;;;;;;5012531;28;20053;-66
2022/06/22 01:42:21;;;;;;;2.78;0.30;;;15.20;99.90;;;;;;5015613;28;19909;-67
2022/06/22 01:45:12;;;;;;;4.32;0.40;;;15.30;99.90;;;;;;5027514;28;20021;-67
2022/06/22 01:47:54;;;;;;;1.83;0.43;;;15.60;99.90;;;;;;5012799;28;20124;-67
2022/06/22 01:50:33;;;;;;;1.75;0.50;;;15.60;99.90;;;;;;5014527;28;20025;-67
2022/06/22 01:53:15;;;;;;;2.95;0.38;;;15.80;99.90;;;;;;5033092;28;20029;-66
2022/06/22 01:56:02;;;;;;;2.15;0.38;;;15.80;99.90;;;;;;5031279;28;20038;-66
2022/06/22 01:59:13;;;;;;;4.88;0.38;;;15.80;99.90;;;;;;5031491;28;20021;-67
2022/06/22 02:01:47;;;;;;;2.08;0.63;;;15.80;99.90;;;;;;5026946;28;20029;-67
2022/06/22 02:04:29;;;;;;;3.03;0.53;;;15.60;99.90;;;;;;5033051;28;20025;-67
2022/06/22 02:07:47;;;;;;;2.50;0.55;;;15.90;99.90;;;;;;5031840;28;20282;-67
2022/06/22 02:11:01;;;;;;;0.88;0.25;;;16.10;99.90;;;;;;5030187;28;20022;-67
2022/06/22 02:13:28;;;;;;;2.53;0.40;;;16.20;99.90;;;;;;5013039;28;20052;-68
2022/06/22 02:16:30;;;;;;;2.35;0.35;;;16.30;99.90;;;;;;5017012;28;20084;-68
2022/06/22 02:19:00;;;;;;;1.52;0.43;;;16.40;99.90;;;;;;5013294;28;20029;-67
2022/06/22 02:21:50;;;;;;;1.70;0.55;;;16.60;99.90;;;;;;5022794;28;20486;-67
2022/06/22 02:24:34;;;;;;;2.67;0.40;;;16.90;99.90;;;;;;5032573;28;20030;-67
2022/06/22 02:27:18;;;;;;;2.13;0.75;;;17.00;99.90;;;;;;5020265;28;20056;-67
2022/06/22 02:29:50;;;;;;;3.30;0.30;;;17.40;99.90;;;;;;5016445;28;20029;-67
2022/06/22 02:32:21;;;;;;;1.60;0.30;;;17.30;99.90;;;;;;5033987;28;20481;-68
2022/06/22 02:34:51;;;;;;;0.93;0.20;;;17.40;99.90;;;;;;5036822;28;20032;-67
2022/06/22 02:37:21;;;;;;;2.90;0.20;;;16.50;99.90;;;;;;5017288;28;20104;-67
2022/06/22 02:39:56;;;;;;;0.70;0.32;;;16.60;99.90;;;;;;5016291;28;20029;-68
2022/06/22 02:45:10;;;;;;;2.78;0.55;;;17.00;99.90;;;;;;5016308;28;20033;-68
2022/06/22 02:47:59;;;;;;;2.58;0.30;;;17.00;99.90;;;;;;5016181;28;20067;-67
2022/06/22 02:50:41;;;;;;;2.63;0.43;;;17.10;99.90;;;;;;5019416;28;20077;-67
2022/06/22 02:53:26;;;;;;;3.55;0.82;;;17.40;99.90;;;;;;5035861;28;20021;-68
2022/06/22 02:55:55;;;;;;;4.18;0.90;;;16.90;99.80;;;;;;5020870;28;20055;-68
2022/06/22 02:58:30;;;;;;;2.67;0.45;;;17.60;99.90;;;;;;5016098;28;20032;-68
2022/06/22 03:01:04;;;;;;;2.28;0.20;;;17.20;99.90;;;;;;5022689;28;20018;-67
2022/06/22 03:03:34;;;;;;;4.18;0.30;;;17.00;99.90;;;;;;5019570;28;20084;-68
2022/06/22 03:06:01;;;;;;;5.25;0.50;;;17.20;99.90;;;;;;5016341;28;20482;-67
2022/06/22 03:08:30;;;;;;;1.35;0.40;;;17.30;99.90;;;;;;5015872;28;20029;-68
2022/06/22 03:11:02;;;;;;;5.38;0.30;;;17.10;99.90;;;;;;5015688;28;20022;-67
2022/06/22 03:13:42;;;;;;;1.40;0.30;;;17.30;99.90;;;;;;5026391;28;20033;-67
2022/06/22 03:16:33;;;;;;;1.67;0.30;;;17.40;99.80;;;;;;5017775;28;20472;-67
2022/06/22 03:19:06;;;;;;;1.83;0.40;;;16.80;99.20;;;;;;5015408;28;20030;-67
2022/06/22 03:21:33;;;;;;;1.67;0.40;;;16.60;99.60;;;;;;5022213;28;20083;-67
2022/06/22 03:24:05;;;;;;;1.10;0.30;;;16.40;99.90;;;;;;5015855;28;20054;-68
2022/06/22 03:26:43;;;;;;;0.95;0.20;;;16.30;99.90;;;;;;5015764;28;20541;-67
2022/06/22 03:29:25;;;;;;;1.83;0.73;;;16.10;99.90;;;;;;5015668;28;20382;-68
2022/06/22 03:32:17;;;;;;;1.50;0.40;;;16.20;99.90;;;;;;5029893;28;20017;-67
2022/06/22 03:35:25;;;;;;;0.60;0.25;;;16.20;99.90;;;;;;5031622;28;20162;-67
2022/06/22 03:38:11;;;;;;;2.78;0.60;;;16.00;99.90;;;;;;4985266;28;20519;-67
2022/06/22 03:40:50;;;;;;;2.08;0.30;;;16.60;99.90;;;;;;5015134;28;20034;-68
2022/06/22 03:43:26;;;;;;;0.85;0.20;;;16.90;99.30;;;;;;5019647;28;20386;-69
2022/06/22 03:46:09;;;;;;;1.67;0.38;;;16.80;99.10;;;;;;5029991;28;20029;-68
2022/06/22 03:48:44;;;;;;;2.17;0.10;;;16.90;99.60;;;;;;5025720;28;20032;-68
2022/06/22 03:51:27;;;;;;;2.58;0.30;;;16.90;99.50;;;;;;5024089;28;20065;-67
2022/06/22 03:54:23;;;;;;;1.45;0.43;;;17.10;99.00;;;;;;5014127;28;20041;-67
2022/06/22 03:56:54;;;;;;;1.98;1.15;;;16.90;99.70;;;;;;5040071;28;20053;-68
2022/06/22 03:59:25;;;;;;;1.92;0.50;;;17.00;99.10;;;;;;5018886;28;20026;-68
2022/06/22 04:01:55;;;;;;;1.80;0.70;;;16.80;99.90;;;;;;5028525;28;20029;-67
2022/06/22 04:04:24;;;;;;;2.13;0.30;;;16.70;99.80;;;;;;5028006;28;20483;-68
2022/06/22 04:06:54;;;;;;;2.88;0.50;;;16.60;99.90;;;;;;5018568;28;20029;-68
2022/06/22 04:09:25;;;;;;;2.03;0.32;;;16.40;99.70;;;;;;5018382;28;20017;-67
2022/06/22 04:12:02;;;;;;;1.95;0.30;;;16.30;99.60;;;;;;5016342;28;20055;-67
2022/06/22 04:14:45;;;;;;;1.58;0.47;;;16.40;99.80;;;;;;5027972;28;20030;-67
2022/06/22 04:17:23;;;;;;;2.60;0.45;;;16.40;99.90;;;;;;5024691;28;20516;-67
2022/06/22 04:20:06;;;;;;;1.33;0.20;;;16.20;99.90;;;;;;5033476;28;20029;-68
2022/06/22 04:22:37;;;;;;;0.68;0.40;;;16.30;99.90;;;;;;5018973;28;20029;-67
2022/06/22 04:25:35;;;;;;;1.23;0.30;;;16.30;99.80;;;;;;5024387;28;20028;-68
2022/06/22 04:28:08;;;;;;;1.25;0.30;;;16.30;99.90;;;;;;5016067;28;20505;-67
2022/06/22 04:30:42;;;;;;;0.45;0.10;;;16.40;99.50;;;;;;5028488;28;20120;-68
2022/06/22 04:33:15;;;;;;;;;;;16.30;98.70;;;;;;5026924;28;20061;-68
2022/06/22 04:35:59;;;;;;;3.78;0.40;;;16.20;98.50;;;;;;5020409;28;20030;-68
2022/06/22 04:38:33;;;;;;;1.48;0.13;;;16.20;98.50;;;;;;5013763;28;20045;-68
2022/06/22 04:41:19;;;;;;;3.08;0.50;;;16.30;98.40;;;;;;5014916;28;20022;-68
2022/06/22 04:43:49;;;;;;;0.50;0.20;;;16.30;98.30;;;;;;5015122;28;20034;-65
2022/06/22 04:46:27;;;;;;;1.95;0.43;;;16.40;99.70;;;;;;5024065;28;20053;-67
2022/06/22 04:48:58;;;;;;;1.50;0.45;;;16.50;98.80;;;;;;5012448;28;20060;-65
2022/06/22 04:51:35;;;;;;;0.68;0.20;;;16.40;99.30;;;;;;5024133;28;20025;-67
2022/06/22 04:54:21;;;;;;;1.50;0.20;;;16.30;99.90;;;;;;5016347;28;20034;-67
2022/06/22 04:56:51;;;;;;;0.60;0.20;;;16.30;99.90;;;;;;5014184;28;20025;-66
2022/06/22 04:59:20;;;;;;;0.60;0.30;;;16.30;99.90;;;;;;5014369;28;20018;-66
2022/06/22 05:01:51;;;;;;;0.40;0.20;;;16.10;99.90;;;;;;5028968;28;20501;-67
2022/06/22 05:04:46;;;;;;;4.97;0.57;;;15.90;99.90;;;;;;5026944;28;20428;-66
2022/06/22 05:07:19;;;;;;;4.13;0.30;;;15.90;99.90;;;;;;5015646;28;20112;-67
2022/06/22 05:10:12;;;;;;;0.65;0.30;;;15.80;99.90;;;;;;5014089;28;20429;-67
2022/06/22 05:12:53;;;;;;;0.57;0.25;;;15.80;99.90;;;;;;5021638;28;20041;-67
2022/06/22 05:15:42;;;;;;;0.60;0.30;;;15.70;99.90;;;;;;5014295;28;20028;-67
2022/06/22 05:18:31;;;;;;;2.30;0.52;;;15.90;99.90;;;;;;5030653;28;20092;-68
2022/06/22 05:21:11;;;;;;;2.63;0.68;;;15.90;99.90;;;;;;5032575;28;20051;-66
2022/06/22 05:23:40;;;;;;;3.38;0.30;;;15.90;99.90;;;;;;5013860;28;20493;-67
2022/06/22 05:26:09;;;;;;;1.05;0.30;;;15.70;99.90;;;;;;5013176;28;20030;-67
2022/06/22 05:29:07;;;;;;;1.23;0.30;;;15.70;99.90;;;;;;5012476;28;20528;-66
2022/06/22 05:31:39;;;;;;;1.55;0.20;;;15.60;99.90;;;;;;5015925;28;20052;-68
2022/06/22 05:34:13;;;;;;;2.45;0.60;;;15.60;99.90;;;;;;5016567;28;20037;-67
2022/06/22 05:36:46;;;;;;;2.42;0.30;;;15.80;99.90;;;;;;5012840;28;20041;-67
2022/06/22 05:39:14;;;;;;;1.27;0.10;;;15.90;99.90;;;;;;5013386;28;20029;-67
2022/06/22 05:41:45;;;;;;;1.13;0.22;;;15.90;99.90;;;;;;5014423;28;20038;-67
2022/06/22 05:44:16;;;;;;;3.65;0.52;;;15.80;99.90;;;;;;5014359;28;20033;-67
2022/06/22 05:46:55;;;;;;;1.15;0.25;;;15.70;99.90;;;;;;5039784;28;20520;-68
2022/06/22 05:49:51;;;;;;;0.63;0.30;;;15.70;99.90;;;;;;5025730;28;20367;-68
2022/06/22 05:52:55;;;;;;;1.10;0.22;;;15.60;99.90;;;;;;5020486;28;20072;-67
2022/06/22 05:56:10;;;;;;;4.47;0.43;;;15.70;99.90;;;;;;5016755;28;20686;-67
2022/06/22 05:58:37;;;;;;;0.93;0.40;;;15.80;99.90;;;;;;5031119;28;20039;-67
2022/06/22 06:01:13;;;;;;;1.90;0.30;;;15.70;99.90;;;;;;5029100;28;20026;-67
2022/06/22 06:04:01;;;;;;;1.13;0.38;;;15.60;99.90;;;;;;5038018;28;20041;-67
2022/06/22 06:06:34;;;;;;;0.57;0.15;;;15.50;99.90;;;;;;5026248;28;20120;-67
2022/06/22 06:09:06;;;;;;;1.77;0.25;;;15.40;99.90;;;;;;5036068;28;20025;-67
2022/06/22 06:11:46;;;;;;;1.08;0.20;;;15.30;99.90;;;;;;5034700;28;20079;-67
2022/06/22 06:14:38;;;;;;;0.50;0.28;;;15.10;99.90;;;;;;5029622;28;20040;-67
2022/06/22 06:17:16;;;;;;;0.93;0.20;;;15.00;99.90;;;;;;5026331;28;20083;-68
2022/06/22 06:19:48;;;;;;;0.88;0.30;;;14.90;99.90;;;;;;5023985;28;20079;-67
2022/06/22 06:22:15;;;;;;;1.52;0.35;;;14.90;99.90;;;;;;5026197;28;20155;-68
2022/06/22 06:27:41;;;;;;;2.55;0.40;;;14.90;99.90;;;;;;5028781;28;20084;-67
2022/06/22 06:30:10;;;;;;;1.70;0.30;;;14.90;99.90;;;;;;5022544;28;20076;-67
2022/06/22 06:32:48;;;;;;;1.83;0.30;;;14.90;99.90;;;;;;5024903;28;20033;-67
2022/06/22 06:35:29;;;;;;;3.92;0.50;;;14.80;99.90;;;;;;5032315;28;20101;-67
2022/06/22 06:38:10;;;;;;;0.85;0.28;;;14.60;99.90;;;;;;5017067;28;20049;-68
2022/06/22 06:40:54;;;;;;;1.10;0.55;;;14.50;99.90;;;;;;5032562;28;20029;-67
2022/06/22 06:43:36;;;;;;;0.65;0.52;;;14.30;99.90;;;;;;5024980;28;20109;-67
2022/06/22 06:46:10;;;;;;;1.33;0.30;;;14.20;99.90;;;;;;5029505;28;20022;-68
2022/06/22 06:48:38;;;;;;;1.85;0.80;;;14.20;99.90;;;;;;5017006;28;20036;-68
2022/06/22 06:51:06;;;;;;;4.68;0.93;;;14.10;99.90;;;;;;5029856;28;20041;-67
2022/06/22 06:54:10;;;;;;;1.83;0.63;;;14.10;99.90;;;;;;5031226;28;20423;-68
2022/06/22 06:57:01;;;;;;;1.67;0.80;;;14.10;99.90;;;;;;5030850;28;20410;-68
2022/06/22 06:59:34;;;;;;;2.15;0.80;;;13.90;99.90;;;;;;5028758;28;20037;-67
2022/06/22 07:02:12;;;;;;;1.38;0.50;;;13.90;99.90;;;;;;5021235;28;20026;-68
2022/06/22 07:04:39;;;;;;;2.40;0.68;;;13.80;99.90;;;;;;5022410;28;20030;-67
2022/06/22 07:07:38;;;;;;;2.80;1.02;;;13.70;99.90;;;;;;5030895;28;20022;-67
2022/06/22 07:10:20;;;;;;;3.53;1.60;;;13.60;99.90;;;;;;5028627;28;20121;-67
2022/06/22 07:12:58;;;;;;;4.60;1.27;;;13.50;99.90;;;;;;5037428;28;20021;-67
2022/06/22 07:15:40;;;;;;;6.38;1.88;;;13.50;99.90;;;;;;5038616;28;20040;-67
2022/06/22 07:18:22;;;;;;;6.40;1.85;;;13.40;99.90;;;;;;5027450;28;20567;-67
2022/06/22 07:21:16;;;;;;;6.60;1.70;;;13.40;99.90;;;;;;5023707;28;20057;-68
2022/06/22 07:23:54;;;;;;;6.18;2.20;;;13.40;99.90;;;;;;5024354;28;20057;-68
2022/06/22 07:26:46;;;;;;;10.95;2.42;;;13.30;99.90;;;;;;5019077;28;20056;-68
2022/06/22 07:29:45;;;;;;;12.77;2.22;;;13.20;99.90;;;;;;5035802;28;20100;-68
2022/06/22 07:32:39;;;;;;;11.90;2.20;;;13.20;99.90;;;;;;5040664;28;20521;-68
2022/06/22 07:35:32;;;;;;;10.68;2.10;;;13.20;99.90;;;;;;5034291;28;20486;-68
2022/06/22 07:38:11;;;;;;;9.57;2.13;;;13.10;99.90;;;;;;5015388;28;20066;-68
2022/06/22 07:40:39;;;;;;;12.70;2.13;;;13.10;99.90;;;;;;5034151;28;20025;-69
2022/06/22 07:43:09;;;;;;;16.13;2.50;;;13.10;99.90;;;;;;5029583;28;20199;-68
2022/06/22 07:45:37;;;;;;;12.80;1.83;;;13.10;99.90;;;;;;5023049;28;20018;-68
2022/06/22 07:48:19;;;;;;;6.18;2.30;;;13.20;99.90;;;;;;5041588;28;20108;-68
2022/06/22 07:50:54;;;;;;;8.40;2.63;;;13.20;99.90;;;;;;5036453;28;20025;-68
2022/06/22 07:53:47;;;;;;;7.78;2.17;;;13.20;99.90;;;;;;5024467;28;20024;-69
2022/06/22 07:56:37;;;;;;;8.23;2.05;;;13.10;99.90;;;;;;5032436;28;20076;-68
2022/06/22 07:59:17;;;;;;;7.03;2.08;;;13.10;99.90;;;;;;5036044;28;20045;-68
2022/06/22 08:01:47;;;;;;;8.02;1.65;;;13.00;99.90;;;;;;5019230;28;20030;-69
2022/06/22 08:04:25;;;;;;;5.25;1.83;;;13.00;99.90;;;;;;5028329;28;20055;-68
2022/06/22 08:07:05;;;;;;;6.18;1.63;;;13.00;99.90;;;;;;5036234;28;20029;-68
2022/06/22 08:09:53;;;;;;;4.60;1.40;;;13.00;99.90;;;;;;5041431;28;20072;-68
2022/06/22 08:12:49;;;;;;;9.02;2.17;;;12.90;99.90;;;;;;5035397;28;20461;-68
2022/06/22 08:15:18;;;;;;;7.38;1.30;;;12.90;99.90;;;;;;5056145;28;20047;-68
2022/06/22 08:17:54;;;;;;;4.20;1.70;;;12.80;99.90;;;;;;5040519;28;20033;-68
2022/06/22 08:20:26;;;;;;;4.25;1.42;;;12.80;99.90;;;;;;5028008;28;20026;-68
2022/06/22 08:22:56;;;;;;;9.35;2.20;;;12.80;99.90;;;;;;5032667;28;20030;-68
2022/06/22 08:25:24;;;;;;;6.38;2.13;;;13.00;99.90;;;;;;5022764;28;20030;-68
2022/06/22 08:27:55;;;;;;;9.23;2.33;;;13.20;99.90;;;;;;5047851;28;20089;-68
2022/06/22 08:30:22;;;;;;;10.68;2.78;;;13.30;99.90;;;;;;5034331;28;20033;-68
2022/06/22 08:33:20;;;;;;;9.30;2.78;;;13.40;99.90;;;;;;5024711;28;20021;-69
2022/06/22 08:35:59;;;;;;;5.30;2.30;;;13.30;99.90;;;;;;5048719;28;20108;-68
2022/06/22 08:38:34;;;;;;;8.60;2.60;;;13.20;99.90;;;;;;5044460;28;20493;-67
2022/06/22 08:41:19;;;;;;;6.88;4.13;;;13.10;99.90;;;;;;5036524;28;20029;-68
2022/06/22 08:44:09;;;;;;;6.57;4.22;;;13.00;99.90;;;;;;5030731;28;20108;-68
2022/06/22 08:47:09;;;;;;;8.48;3.75;;;13.00;99.90;;;;;;5043030;28;20040;-68
2022/06/22 08:49:42;;;;;;;6.97;1.95;;;13.00;99.90;;;;;;5048339;28;20033;-68
2022/06/22 08:52:28;;;;;;;4.72;2.15;;;13.10;99.90;;;;;;5036982;28;20025;-68
2022/06/22 08:55:09;;;;;;;4.93;1.80;;;13.10;99.90;;;;;;5044464;28;20053;-69
2022/06/22 08:58:06;;;;;;;9.38;2.35;;;13.10;99.90;;;;;;5035400;28;20764;-68
2022/06/22 09:00:38;;;;;;;5.47;1.85;;;13.10;99.90;;;;;;5028859;28;20026;-69
2022/06/22 09:03:24;;;;;;;6.55;2.40;;;13.20;99.90;;;;;;5037126;28;20485;-68
2022/06/22 09:06:28;;;;;;;5.72;2.40;;;13.20;99.90;;;;;;5035941;28;20038;-68
2022/06/22 09:09:01;;;;;;;9.35;3.00;;;13.20;99.90;;;;;;5030764;28;20103;-68
2022/06/22 09:11:52;;;;;;;7.15;3.30;;;13.20;99.90;;;;;;5015173;28;20034;-69
2022/06/22 09:14:32;;;;;;;6.22;2.55;;;13.30;99.90;;;;;;5018002;28;20038;-68
2022/06/22 09:17:17;;;;;;;7.25;3.15;;;13.30;99.90;;;;;;5019669;28;20107;-69
2022/06/22 09:20:11;;;;;;;4.80;2.10;;;13.20;99.90;;;;;;5016592;28;20033;-68
2022/06/22 09:22:55;;;;;;;7.13;2.35;;;13.10;99.90;;;;;;5031757;28;21873;-69
2022/06/22 09:25:52;;;;;;;8.10;2.50;;;13.10;99.90;;;;;;5035784;28;20028;-68
2022/06/22 09:28:26;;;;;;;8.75;3.13;;;13.10;99.90;;;;;;5050297;28;20093;-68
2022/06/22 09:30:53;;;;;;;8.80;2.90;;;13.10;99.90;;;;;;5039088;28;20029;-68
2022/06/22 09:33:26;;;;;;;7.10;2.20;;;13.00;99.90;;;;;;5034308;28;20049;-69
2022/06/22 09:36:02;;;;;;;4.95;2.60;;;13.00;99.90;;;;;;5030773;28;20045;-68
2022/06/22 09:38:38;;;;;;;7.18;2.70;;;13.00;99.90;;;;;;5052703;28;20028;-68
2022/06/22 09:41:30;;;;;;;4.75;2.10;;;13.00;99.90;;;;;;5019914;28;20494;-67
2022/06/22 09:44:13;;;;;;;9.45;3.03;;;13.00;99.90;;;;;;5022010;28;20040;-68
2022/06/22 09:47:06;;;;;;;7.28;2.63;;;12.90;99.90;;;;;;5012628;28;20025;-68
2022/06/22 09:50:19;;;;;;;4.93;2.30;;;12.80;99.90;;;;;;5018571;28;20026;-68
2022/06/22 09:53:27;;;;;;;6.07;2.80;;;12.80;99.90;;;;;;5026117;28;20489;-68
2022/06/22 09:56:22;;;;;;;4.15;3.10;;;12.70;99.90;;;;;;5053504;28;20091;-68
2022/06/22 09:59:00;;;;;;;7.25;2.90;;;12.70;99.90;;;;;;5031956;28;20060;-68
2022/06/22 10:01:45;;;;;;;7.28;2.30;;;12.70;99.90;;;;;;5029777;28;20022;-68
2022/06/22 10:04:38;;;;;;;5.93;2.90;;;12.60;99.90;;;;;;5034454;28;20111;-68
2022/06/22 10:07:23;;;;;;;8.73;3.25;;;12.60;99.90;;;;;;5026963;28;20131;-67
2022/06/22 10:09:59;;;;;;;5.93;2.90;;;12.60;99.90;;;;;;5022160;28;20033;-68
2022/06/22 10:12:57;;;;;;;11.23;4.47;;;12.70;99.90;;;;;;5024370;28;20393;-67
2022/06/22 10:16:07;;;;;;;11.07;3.55;;;12.70;99.90;;;;;;5020948;28;20029;-68
2022/06/22 10:18:58;;;;;;;6.60;3.20;;;12.60;99.90;;;;;;5051125;28;20036;-68
2022/06/22 10:21:43;;;;;;;6.45;3.40;;;12.50;99.90;;;;;;5048562;28;20025;-68
2022/06/22 10:24:13;;;;;;;6.63;2.80;;;12.60;99.90;;;;;;5020663;28;20053;-68
2022/06/22 10:27:05;;;;;;;7.85;3.60;;;12.50;99.90;;;;;;5028546;28;20079;-68
2022/06/22 10:29:41;;;;;;;6.10;3.10;;;12.40;99.90;;;;;;5026793;28;20021;-68
2022/06/22 10:32:45;;;;;;;6.70;3.42;;;12.30;99.90;;;;;;5021175;28;20064;-68
2022/06/22 10:35:24;;;;;;;7.85;2.88;;;12.30;99.90;;;;;;5024671;28;20037;-68
2022/06/22 10:38:13;;;;;;;10.43;5.60;;;12.30;99.90;;;;;;5019068;28;20030;-69
2022/06/22 10:47:22;;;;;;;5.78;3.30;;;12.20;99.90;;;;;;5032169;28;20021;-68
2022/06/22 10:49:58;;;;;;;8.85;3.75;;;12.20;99.90;;;;;;5031787;28;20021;-67
2022/06/22 10:52:47;;;;;;;7.13;4.10;;;12.00;99.90;;;;;;5049274;28;20103;-67
2022/06/22 10:55:26;;;;;;;7.93;3.75;;;11.90;99.90;;;;;;5048060;28;20060;-68
2022/06/22 10:58:23;;;;;;;7.63;3.75;;;11.80;99.90;;;;;;5054765;28;20029;-68
2022/06/22 11:01:19;;;;;;;5.97;3.13;;;11.90;99.90;;;;;;5027024;28;20080;-67
2022/06/22 11:04:07;;;;;;;8.32;4.07;;;12.00;99.90;;;;;;5032308;28;20417;-68
2022/06/22 11:06:59;;;;;;;7.97;3.97;;;12.10;99.90;;;;;;5018812;28;20041;-68
2022/06/22 11:09:47;;;;;;;11.68;5.07;;;12.20;99.90;;;;;;5031380;28;20104;-67
2022/06/22 11:12:34;;;;;;;10.27;4.00;;;12.00;99.90;;;;;;5039928;28;20493;-68
2022/06/22 11:15:38;;;;;;;8.38;3.88;;;12.00;99.90;;;;;;5037966;28;20152;-67
2022/06/22 11:18:23;;;;;;;13.85;5.53;;;11.90;99.90;;;;;;5024559;28;20119;-68
2022/06/22 11:21:23;;;;;;;10.90;4.53;;;11.90;99.90;;;;;;5032662;28;20049;-67
2022/06/22 11:24:11;;;;;;;15.77;5.20;;;11.90;99.90;;;;;;5032561;28;20041;-68
2022/06/22 11:30:49;;;;;;;9.60;5.28;;;11.70;99.90;;;;;;5021870;28;20045;-68
2022/06/22 11:33:25;;;;;;;12.40;4.95;;;11.80;99.90;;;;;;5033433;28;20433;-68
2022/06/22 11:36:09;;;;;;;11.65;6.13;;;11.70;99.90;;;;;;5036506;28;20028;-67
2022/06/22 11:38:36;;;;;;;14.93;6.00;;;11.70;99.90;;;;;;5036075;28;20072;-67
2022/06/22 11:41:22;;;;;;;14.90;6.05;;;11.60;99.90;;;;;;5019962;28;20025;-67
2022/06/22 11:44:09;;;;;;;14.27;6.05;;;11.60;99.90;;;;;;5032292;28;20037;-67
2022/06/22 11:46:51;;;;;;;13.30;6.90;;;11.60;99.90;;;;;;5028661;28;20042;-67
2022/06/22 11:49:18;;;;;;;14.02;6.63;;;11.60;99.90;;;;;;5027088;28;20079;-68
2022/06/22 11:52:01;;;;;;;10.48;7.00;;;11.60;99.90;;;;;;5024538;28;20104;-66
2022/06/22 11:55:12;;;;;;;17.92;7.28;;;11.50;99.90;;;;;;5027937;28;20054;-66
2022/06/22 11:58:08;;;;;;;20.20;7.22;;;11.50;99.90;;;;;;5031678;28;20025;-67
2022/06/22 12:01:09;;;;;;;12.82;6.75;;;11.40;99.90;;;;;;5019234;28;20049;-67
2022/06/22 12:03:58;;;;;;;11.45;6.50;;;11.00;99.90;;;;;;5016321;28;20497;-67
2022/06/22 12:06:46;;;;;;;14.85;6.70;;;11.00;99.90;;;;;;5028661;28;20035;-68
2022/06/22 12:09:42;;;;;;;14.70;6.15;;;10.70;99.90;;;;;;5027617;28;20030;-67
2022/06/22 12:12:30;;;;;;;12.63;5.10;;;10.80;99.90;;;;;;5038704;28;20112;-66
2022/06/22 12:15:28;;;;;;;10.32;5.65;;;10.80;99.90;;;;;;5034327;28;20048;-67
2022/06/22 12:18:11;;;;;;;10.63;6.10;;;10.80;99.90;;;;;;5034938;28;20125;-67
2022/06/22 12:20:41;;;;;;;10.82;5.80;;;10.80;99.90;;;;;;5034971;28;20043;-67
2022/06/22 12:23:23;;;;;;;12.70;5.18;;;10.80;99.90;;;;;;5031358;28;20033;-67
2022/06/22 12:26:16;;;;;;;11.48;5.05;;;10.70;99.90;;;;;;5026171;28;20034;-68
2022/06/22 12:29:02;;;;;;;9.13;4.50;;;10.70;99.90;;;;;;5025945;28;20022;-69
2022/06/22 12:31:38;;;;;;;9.40;4.07;;;10.80;99.90;;;;;;5027329;28;20040;-68
2022/06/22 12:34:32;;;;;;;8.57;4.13;;;10.80;99.90;;;;;;5033436;28;20033;-67
2022/06/22 12:37:09;;;;;;;6.75;3.75;;;10.80;99.90;;;;;;5021382;28;20494;-68
2022/06/22 12:39:51;;;;;;;9.52;4.50;;;10.90;99.90;;;;;;5038631;28;20087;-68
2022/06/22 12:42:22;;;;;;;7.68;4.05;;;10.90;99.90;;;;;;5041978;28;20033;-67
2022/06/22 12:45:20;;;;;;;11.07;4.35;;;10.90;99.90;;;;;;5035966;28;20017;-68
2022/06/22 12:48:03;;;;;;;8.93;4.18;;;10.90;99.90;;;;;;5026607;28;20026;-68
2022/06/22 12:50:49;;;;;;;7.85;3.78;;;11.00;99.90;;;;;;5022055;28;20021;-68
2022/06/22 12:53:29;;;;;;;11.10;3.83;;;10.90;99.90;;;;;;5029307;28;20478;-68
2022/06/22 12:56:08;;;;;;;8.55;3.42;;;10.80;99.90;;;;;;5025805;28;20049;-68
2022/06/22 12:58:46;;;;;;;6.20;2.70;;;10.80;99.90;;;;;;5024294;28;20053;-68
2022/06/22 13:01:14;;;;;;;10.48;3.15;;;10.90;99.90;;;;;;5028840;28;20099;-68
2022/06/22 13:03:50;;;;;;;8.45;2.50;;;10.90;99.90;;;;;;5026868;28;20076;-68
2022/06/22 13:06:18;;;;;;;7.15;2.35;;;10.70;99.90;;;;;;5021935;28;20022;-69
2022/06/22 13:08:45;;;;;;;6.82;2.70;;;10.70;99.90;;;;;;5028914;28;20021;-67
2022/06/22 13:11:20;;;;;;;6.13;2.60;;;10.60;99.90;;;;;;5023095;28;20069;-68
2022/06/22 13:13:54;;;;;;;6.07;3.00;;;10.70;99.90;;;;;;5029274;28;20068;-68
2022/06/22 13:16:53;;;;;;;4.32;2.10;;;10.70;99.90;;;;;;5025858;28;20025;-68
2022/06/22 13:19:33;;;;;;;9.82;2.47;;;10.70;99.90;;;;;;5026144;28;20048;-67
2022/06/22 13:22:27;;;;;;;4.90;2.60;;;10.80;99.90;;;;;;5024891;28;20070;-67
2022/06/22 13:25:07;;;;;;;6.43;2.70;;;10.80;99.90;;;;;;5028818;28;20026;-67
2022/06/22 13:27:52;;;;;;;8.65;2.40;;;10.70;99.90;;;;;;5034580;28;20040;-67
2022/06/22 13:30:28;;;;;;;5.65;2.25;;;10.70;99.90;;;;;;5029639;28;20038;-67
2022/06/22 13:33:30;;;;;;;4.32;2.20;;;10.60;99.90;;;;;;5022346;28;20026;-68
2022/06/22 13:36:20;;;;;;;5.72;2.17;;;10.60;99.90;;;;;;5018965;28;20054;-66
2022/06/22 13:39:04;;;;;;;7.13;2.55;;;10.50;99.90;;;;;;5030657;28;20029;-66
2022/06/22 13:42:09;;;;;;;6.20;3.33;;;10.60;99.90;;;;;;5026165;28;22726;-67
2022/06/22 13:44:45;;;;;;;;;;;10.60;99.90;;;;;;5044979;28;20043;-67
2022/06/22 13:47:25;;;;;;;3.42;2.05;;;10.70;99.90;;;;;;5049258;28;20423;-67
2022/06/22 13:50:13;;;;;;;5.90;2.50;;;10.70;99.90;;;;;;5035494;28;20142;-69
2022/06/22 13:52:45;;;;;;;6.72;2.45;;;10.70;99.90;;;;;;5026369;28;20033;-68
2022/06/22 13:55:24;;;;;;;4.20;1.98;;;10.70;99.90;;;;;;5033099;28;20049;-68
2022/06/22 13:58:08;;;;;;;5.95;2.30;;;10.70;99.90;;;;;;5031231;28;20513;-68
2022/06/22 14:00:46;;;;;;;6.35;3.30;;;10.60;99.90;;;;;;5020316;28;20045;-68
2022/06/22 14:03:25;;;;;;;7.38;2.78;;;10.60;99.90;;;;;;5027468;28;20553;-68
2022/06/22 14:05:58;;;;;;;11.55;2.67;;;10.60;99.90;;;;;;5038264;28;20036;-68
2022/06/22 14:08:43;;;;;;;7.07;3.20;;;10.60;99.90;;;;;;5040186;28;20056;-68
2022/06/22 14:11:16;;;;;;;9.55;3.00;;;10.60;99.90;;;;;;5030094;28;20433;-67
2022/06/22 14:13:48;;;;;;;8.00;3.20;;;10.60;99.90;;;;;;5023102;28;20047;-67
2022/06/22 14:16:23;;;;;;;9.77;3.42;;;10.60;99.90;;;;;;5029015;28;20088;-68